createdAt,value
2023-02-23T00:01:25.087Z,8.90
2023-02-23T00:03:57.871Z,8.90
2023-02-23T00:06:32.580Z,8.90
2023-02-23T00:09:06.616Z,9.00
2023-02-23T00:11:36.601Z,9.00
2023-02-23T00:14:08.324Z,9.00
2023-02-23T00:16:38.201Z,9.00
2023-02-23T00:19:08.395Z,9.00
2023-02-23T00:21:40.891Z,9.00
2023-02-23T00:24:12.974Z,9.10
2023-02-23T00:26:45.445Z,9.10
2023-02-23T00:29:18.354Z,9.10
2023-02-23T00:31:49.281Z,9.10
2023-02-23T00:34:23.633Z,9.10
2023-02-23T00:36:57.348Z,9.10
2023-02-23T00:39:29.372Z,9.10
2023-02-23T00:42:02.844Z,9.20
2023-02-23T00:44:34.083Z,9.10
2023-02-23T00:47:05.230Z,9.00
2023-02-23T00:49:35.234Z,9.10
2023-02-23T00:52:08.212Z,9.10
2023-02-23T00:54:37.967Z,9.00
2023-02-23T00:57:07.744Z,9.00
2023-02-23T00:59:37.709Z,8.90
2023-02-23T01:02:07.599Z,8.90
2023-02-23T01:04:37.340Z,8.80
2023-02-23T01:07:12.969Z,8.80
2023-02-23T01:09:43.675Z,8.70
2023-02-23T01:12:13.439Z,8.70
2023-02-23T01:14:43.236Z,8.60
2023-02-23T01:17:12.978Z,8.60
2023-02-23T01:19:42.735Z,8.60
2023-02-23T01:22:15.186Z,8.50
2023-02-23T01:24:45.080Z,8.50
2023-02-23T01:27:14.983Z,8.50
2023-02-23T01:29:44.722Z,8.50
2023-02-23T01:32:14.601Z,8.50
2023-02-23T01:34:44.366Z,8.50
2023-02-23T01:37:16.813Z,8.50
2023-02-23T01:39:46.564Z,8.50
2023-02-23T01:42:17.047Z,8.40
2023-02-23T01:45:23.953Z,8.50
2023-02-23T01:47:55.496Z,8.40
2023-02-23T01:50:27.028Z,8.40
2023-02-23T01:53:00.187Z,8.40
2023-02-23T01:55:30.611Z,8.40
2023-02-23T01:58:07.262Z,8.40
2023-02-23T02:00:39.559Z,8.40
2023-02-23T02:03:14.003Z,8.50
2023-02-23T02:05:45.558Z,8.50
2023-02-23T02:08:19.227Z,8.50
2023-02-23T02:10:56.022Z,8.50
2023-02-23T02:13:29.476Z,8.40
2023-02-23T02:16:28.266Z,8.40
2023-02-23T02:19:30.855Z,8.30
2023-02-23T02:22:39.710Z,8.40
2023-02-23T02:25:43.156Z,8.40
2023-02-23T02:28:54.687Z,8.30
2023-02-23T02:31:46.139Z,8.30
2023-02-23T02:34:57.278Z,8.30
2023-02-23T02:37:38.931Z,8.30
2023-02-23T02:40:21.350Z,8.30
2023-02-23T02:43:10.447Z,8.30
2023-02-23T02:45:51.780Z,8.40
2023-02-23T02:48:33.291Z,8.40
2023-02-23T02:51:10.130Z,8.50
2023-02-23T02:53:48.003Z,8.40
2023-02-23T02:56:20.270Z,8.40
2023-02-23T02:58:50.675Z,8.40
2023-02-23T03:01:33.969Z,8.40
2023-02-23T03:04:32.555Z,8.40
2023-02-23T03:07:20.943Z,8.40
2023-02-23T03:10:11.325Z,8.40
2023-02-23T03:12:59.017Z,8.40
2023-02-23T03:15:57.767Z,8.40
2023-02-23T03:18:56.393Z,8.40
2023-02-23T03:21:44.558Z,8.30
2023-02-23T03:24:34.334Z,8.30
2023-02-23T03:27:23.641Z,8.30
2023-02-23T03:30:12.180Z,8.30
2023-02-23T03:33:01.364Z,8.30
2023-02-23T03:35:49.799Z,8.30
2023-02-23T03:38:35.756Z,8.30
2023-02-23T03:41:20.430Z,8.20
2023-02-23T03:44:08.394Z,8.20
2023-02-23T03:46:51.684Z,8.20
2023-02-23T03:49:35.890Z,8.10
2023-02-23T03:52:23.470Z,8.20
2023-02-23T03:55:11.367Z,8.20
2023-02-23T03:57:55.347Z,8.20
2023-02-23T04:00:46.306Z,8.20
2023-02-23T04:03:31.519Z,8.20
2023-02-23T04:06:14.011Z,8.30
2023-02-23T04:08:56.764Z,8.30
2023-02-23T04:11:45.812Z,8.30
2023-02-23T04:14:19.366Z,8.30
2023-02-23T04:16:49.478Z,8.30
2023-02-23T04:19:19.229Z,8.30
2023-02-23T04:21:49.002Z,8.30
2023-02-23T04:24:18.800Z,8.30
2023-02-23T04:26:48.532Z,8.30
2023-02-23T04:29:18.584Z,8.30
2023-02-23T04:31:52.101Z,8.30
2023-02-23T04:34:21.912Z,8.30
2023-02-23T04:36:52.192Z,8.30
2023-02-23T04:39:21.918Z,8.30
2023-02-23T04:41:51.675Z,8.40
2023-02-23T04:44:21.580Z,8.40
2023-02-23T04:46:53.908Z,8.40
2023-02-23T04:49:23.840Z,8.40
2023-02-23T04:51:53.570Z,8.40
2023-02-23T04:54:23.304Z,8.40
2023-02-23T04:56:53.029Z,8.50
2023-02-23T04:59:22.806Z,8.50
2023-02-23T05:01:55.228Z,8.50
2023-02-23T05:04:25.222Z,8.50
2023-02-23T05:06:55.294Z,8.50
2023-02-23T05:09:25.050Z,8.50
2023-02-23T05:11:54.798Z,8.50
2023-02-23T05:14:25.058Z,8.50
2023-02-23T05:16:57.403Z,8.50
2023-02-23T05:19:27.250Z,8.50
2023-02-23T05:21:57.007Z,8.40
2023-02-23T05:24:26.745Z,8.30
2023-02-23T05:26:56.641Z,8.40
2023-02-23T05:29:26.602Z,8.30
2023-02-23T05:31:59.090Z,8.30
2023-02-23T05:34:29.170Z,8.30
2023-02-23T05:36:58.938Z,8.40
2023-02-23T05:39:28.752Z,8.40
2023-02-23T05:41:58.513Z,8.40
2023-02-23T05:44:28.358Z,8.40
2023-02-23T05:47:00.947Z,8.50
2023-02-23T05:49:31.625Z,8.40
2023-02-23T05:52:01.450Z,8.40
2023-02-23T05:54:31.588Z,8.40
2023-02-23T05:57:01.958Z,8.30
2023-02-23T05:59:32.128Z,8.30
2023-02-23T06:02:04.826Z,8.30
2023-02-23T06:04:35.034Z,8.40
2023-02-23T06:07:04.803Z,8.30
2023-02-23T06:09:34.642Z,8.30
2023-02-23T06:12:04.583Z,8.30
2023-02-23T06:14:35.205Z,8.30
2023-02-23T06:17:08.272Z,8.20
2023-02-23T06:19:38.069Z,8.20
2023-02-23T06:22:07.834Z,8.20
2023-02-23T06:24:37.620Z,8.20
2023-02-23T06:27:07.348Z,8.20
2023-02-23T06:29:37.431Z,8.30
2023-02-23T06:32:09.842Z,8.30
2023-02-23T06:34:40.522Z,8.30
2023-02-23T06:37:10.440Z,8.30
2023-02-23T06:39:40.284Z,8.30
2023-02-23T06:42:10.045Z,8.30
2023-02-23T06:44:40.144Z,8.30
2023-02-23T06:47:12.474Z,8.30
2023-02-23T06:49:42.622Z,8.30
2023-02-23T06:52:13.541Z,8.30
2023-02-23T06:54:43.327Z,8.40
2023-02-23T06:57:13.510Z,8.40
2023-02-23T06:59:43.246Z,8.40
2023-02-23T07:02:16.960Z,8.40
2023-02-23T07:04:47.191Z,8.40
2023-02-23T07:07:17.474Z,8.40
2023-02-23T07:09:47.255Z,8.60
2023-02-23T07:12:17.015Z,8.50
2023-02-23T07:14:46.742Z,8.50
2023-02-23T07:17:19.367Z,8.60
2023-02-23T07:19:49.069Z,8.60
2023-02-23T07:22:18.826Z,8.60
2023-02-23T07:24:48.886Z,8.60
2023-02-23T07:27:18.885Z,8.70
2023-02-23T07:29:48.858Z,8.70
2023-02-23T07:32:21.286Z,8.70
2023-02-23T07:34:53.657Z,8.80
2023-02-23T07:37:23.990Z,8.80
2023-02-23T07:39:53.725Z,8.80
2023-02-23T07:42:23.483Z,8.80
2023-02-23T07:44:53.236Z,8.90
2023-02-23T07:47:31.101Z,9.00
2023-02-23T07:50:03.522Z,9.00
2023-02-23T07:52:33.323Z,9.10
2023-02-23T07:55:03.105Z,9.00
2023-02-23T07:57:32.940Z,9.10
2023-02-23T08:00:02.916Z,9.20
2023-02-23T08:02:35.366Z,9.30
2023-02-23T08:05:05.306Z,9.40
2023-02-23T08:07:35.291Z,9.40
2023-02-23T08:10:05.144Z,9.50
2023-02-23T08:12:36.966Z,9.60
2023-02-23T08:15:08.441Z,9.60
2023-02-23T08:17:41.500Z,9.60
2023-02-23T08:20:12.738Z,9.70
2023-02-23T08:22:49.265Z,9.60
2023-02-23T08:25:20.320Z,9.60
2023-02-23T08:27:51.988Z,9.50
2023-02-23T08:30:23.353Z,9.50
2023-02-23T08:32:55.873Z,9.60
2023-02-23T08:35:25.587Z,9.50
2023-02-23T08:37:57.122Z,9.50
2023-02-23T08:40:26.951Z,9.70
2023-02-23T08:42:56.652Z,9.80
2023-02-23T08:45:29.503Z,9.90
2023-02-23T08:48:01.833Z,9.90
2023-02-23T08:50:31.602Z,10.00
2023-02-23T08:53:01.330Z,10.00
2023-02-23T08:55:31.033Z,10.10
2023-02-23T08:58:01.277Z,10.10
2023-02-23T09:00:31.414Z,10.20
2023-02-23T09:03:05.241Z,10.20
2023-02-23T09:05:35.477Z,10.30
2023-02-23T09:08:05.539Z,10.30
2023-02-23T09:10:35.816Z,10.40
2023-02-23T09:13:05.581Z,10.50
2023-02-23T09:15:35.602Z,10.80
2023-02-23T09:18:08.415Z,10.80
2023-02-23T09:20:38.607Z,10.80
2023-02-23T09:23:08.417Z,10.80
2023-02-23T09:25:43.304Z,10.80
2023-02-23T09:28:14.750Z,10.90
2023-02-23T09:30:45.742Z,11.10
2023-02-23T09:33:18.311Z,11.20
2023-02-23T09:35:48.014Z,11.20
2023-02-23T09:38:17.883Z,11.30
2023-02-23T09:40:49.971Z,11.30
2023-02-23T09:43:25.381Z,11.50
2023-02-23T09:45:59.909Z,11.80
2023-02-23T09:48:32.822Z,11.90
2023-02-23T09:51:03.947Z,11.90
2023-02-23T09:53:38.899Z,12.10
2023-02-23T09:56:14.222Z,11.90
2023-02-23T09:58:44.683Z,12.00
2023-02-23T10:01:46.327Z,12.30
2023-02-23T10:04:23.589Z,12.40
2023-02-23T10:07:00.647Z,12.60
2023-02-23T10:09:52.129Z,12.70
2023-02-23T10:12:28.863Z,12.80
2023-02-23T10:15:13.782Z,12.80
2023-02-23T10:17:51.713Z,12.30
2023-02-23T10:20:30.216Z,12.70
2023-02-23T10:23:06.916Z,13.00
2023-02-23T10:25:40.823Z,13.10
2023-02-23T10:28:15.238Z,13.20
2023-02-23T10:30:45.382Z,12.70
2023-02-23T10:33:19.296Z,12.70
2023-02-23T10:36:07.386Z,12.80
2023-02-23T10:38:42.378Z,12.80
2023-02-23T10:41:15.059Z,12.80
2023-02-23T10:43:45.244Z,13.10
2023-02-23T10:46:24.371Z,13.40
2023-02-23T10:48:57.100Z,13.50
2023-02-23T10:51:35.455Z,13.50
2023-02-23T10:54:47.754Z,12.90
2023-02-23T10:57:27.323Z,13.20
2023-02-23T11:00:12.115Z,13.30
2023-02-23T11:02:42.403Z,13.50
2023-02-23T11:05:34.922Z,13.60
2023-02-23T11:08:30.202Z,13.40
2023-02-23T11:11:25.481Z,13.40
2023-02-23T11:13:55.650Z,13.30
2023-02-23T11:16:27.692Z,13.30
2023-02-23T11:18:59.795Z,13.00
2023-02-23T11:21:33.618Z,13.20
2023-02-23T11:24:09.430Z,13.10
2023-02-23T11:26:44.275Z,13.30
2023-02-23T11:29:19.333Z,13.30
2023-02-23T11:31:53.758Z,13.30
2023-02-23T11:34:31.715Z,13.30
2023-02-23T11:37:05.331Z,13.30
2023-02-23T11:39:35.773Z,13.50
2023-02-23T11:42:25.290Z,13.40
2023-02-23T11:45:04.887Z,13.10
2023-02-23T11:47:36.391Z,13.00
2023-02-23T11:50:07.347Z,12.90
2023-02-23T11:52:38.379Z,12.70
2023-02-23T11:55:10.574Z,12.80
2023-02-23T11:57:43.178Z,12.80
2023-02-23T12:00:15.947Z,12.80
2023-02-23T12:02:55.471Z,12.80
2023-02-23T12:05:27.415Z,12.90
2023-02-23T12:08:02.778Z,12.90
2023-02-23T12:10:37.613Z,13.00
2023-02-23T12:13:28.223Z,13.00
2023-02-23T12:16:02.452Z,13.10
2023-02-23T12:18:44.974Z,13.00
2023-02-23T12:21:35.685Z,13.10
2023-02-23T12:24:20.847Z,13.10
2023-02-23T12:26:55.778Z,13.40
2023-02-23T12:29:34.451Z,13.60
2023-02-23T12:32:08.413Z,13.60
2023-02-23T12:34:42.894Z,13.60
2023-02-23T12:37:19.325Z,13.50
2023-02-23T12:39:54.907Z,13.40
2023-02-23T12:42:31.094Z,13.60
2023-02-23T12:45:07.595Z,13.60
2023-02-23T12:47:41.984Z,13.40
2023-02-23T12:50:14.806Z,13.50
2023-02-23T12:52:49.951Z,13.50
2023-02-23T12:55:33.678Z,13.30
2023-02-23T12:58:10.492Z,13.30
2023-02-23T13:00:50.705Z,13.40
2023-02-23T13:03:48.796Z,13.30
2023-02-23T13:06:25.426Z,13.30
2023-02-23T13:09:03.403Z,13.20
2023-02-23T13:11:51.600Z,13.30
2023-02-23T13:14:26.019Z,13.20
2023-02-23T13:17:01.244Z,13.20
2023-02-23T13:19:38.211Z,13.30
2023-02-23T13:22:26.336Z,13.20
2023-02-23T13:25:00.147Z,13.20
2023-02-23T13:27:34.892Z,13.20
2023-02-23T13:30:05.689Z,13.20
2023-02-23T13:32:39.280Z,13.10
2023-02-23T13:35:15.779Z,13.10
2023-02-23T13:37:48.564Z,13.00
2023-02-23T13:40:27.891Z,13.00
2023-02-23T13:43:07.734Z,13.00
2023-02-23T13:45:52.164Z,13.00
2023-02-23T13:48:33.439Z,13.00
2023-02-23T13:51:09.198Z,13.10
2023-02-23T13:53:44.444Z,13.10
2023-02-23T13:56:19.954Z,13.00
2023-02-23T13:58:53.980Z,13.10
2023-02-23T14:01:29.110Z,13.10
2023-02-23T14:04:04.031Z,13.10
2023-02-23T14:06:35.822Z,13.10
2023-02-23T14:09:12.022Z,13.10
2023-02-23T14:11:48.743Z,12.90
2023-02-23T14:14:44.896Z,12.90
2023-02-23T14:17:44.246Z,13.00
2023-02-23T14:20:30.062Z,13.10
2023-02-23T14:23:31.636Z,13.00
2023-02-23T14:26:19.697Z,13.00
2023-02-23T14:29:11.085Z,13.00
2023-02-23T14:31:41.042Z,13.10
2023-02-23T14:34:15.578Z,12.90
2023-02-23T14:36:48.540Z,12.70
2023-02-23T14:39:27.484Z,12.80
2023-02-23T14:41:59.184Z,12.80
2023-02-23T14:44:32.795Z,12.80
2023-02-23T14:47:05.536Z,12.80
2023-02-23T14:49:40.437Z,12.70
2023-02-23T14:52:20.849Z,12.70
2023-02-23T14:54:50.718Z,12.70
2023-02-23T14:57:23.360Z,12.70
2023-02-23T15:00:01.747Z,12.70
2023-02-23T15:02:34.309Z,12.60
2023-02-23T15:05:17.636Z,12.60
2023-02-23T15:07:51.853Z,12.70
2023-02-23T15:10:27.127Z,12.70
2023-02-23T15:12:57.658Z,12.70
2023-02-23T15:15:30.842Z,12.60
2023-02-23T15:18:04.643Z,12.60
2023-02-23T15:20:36.759Z,12.60
2023-02-23T15:23:09.370Z,12.70
2023-02-23T15:25:44.488Z,12.60
2023-02-23T15:28:25.968Z,12.50
2023-02-23T15:30:57.392Z,12.40
2023-02-23T15:33:28.627Z,12.40
2023-02-23T15:36:08.395Z,12.40
2023-02-23T15:38:45.463Z,12.40
2023-02-23T15:41:23.123Z,12.30
2023-02-23T15:43:53.271Z,12.00
2023-02-23T15:46:27.288Z,12.00
2023-02-23T15:49:03.304Z,11.90
2023-02-23T15:51:38.701Z,11.70
2023-02-23T15:54:20.634Z,11.70
2023-02-23T15:56:54.630Z,11.60
2023-02-23T15:59:29.038Z,11.50
2023-02-23T16:02:02.869Z,11.60
2023-02-23T16:04:36.716Z,11.50
2023-02-23T16:07:17.863Z,11.50
2023-02-23T16:09:55.415Z,11.40
2023-02-23T16:12:29.168Z,11.40
2023-02-23T16:15:02.446Z,11.40
2023-02-23T16:17:37.611Z,11.40
2023-02-23T16:20:18.813Z,11.50
2023-02-23T16:22:54.947Z,11.40
2023-02-23T16:25:29.031Z,11.40
2023-02-23T16:28:03.530Z,11.40
2023-02-23T16:30:42.953Z,11.50
2023-02-23T16:33:20.843Z,11.50
2023-02-23T16:35:52.459Z,11.50
2023-02-23T16:38:28.003Z,11.50
2023-02-23T16:41:00.371Z,11.50
2023-02-23T16:43:31.634Z,11.50
2023-02-23T16:46:01.678Z,11.40
2023-02-23T16:48:31.602Z,11.30
2023-02-23T16:51:01.469Z,11.40
2023-02-23T16:53:31.227Z,11.30
2023-02-23T16:56:12.317Z,11.30
2023-02-23T16:58:43.434Z,11.20
2023-02-23T17:01:18.049Z,11.20
2023-02-23T17:03:53.168Z,11.20
2023-02-23T17:06:23.611Z,11.10
2023-02-23T17:11:47.291Z,11.10
2023-02-23T17:14:25.797Z,11.10
2023-02-23T17:16:56.210Z,11.00
2023-02-23T17:19:26.145Z,11.00
2023-02-23T17:21:56.032Z,11.00
2023-02-23T17:24:26.312Z,11.00
2023-02-23T17:26:58.740Z,11.00
2023-02-23T17:29:28.607Z,11.00
2023-02-23T17:32:01.296Z,10.90
2023-02-23T17:34:32.278Z,10.90
2023-02-23T17:37:02.022Z,10.90
2023-02-23T17:39:31.873Z,10.80
2023-02-23T17:42:04.308Z,10.80
2023-02-23T17:44:34.133Z,10.80
2023-02-23T17:47:03.906Z,10.80
2023-02-23T17:49:33.752Z,10.80
2023-02-23T17:52:03.650Z,10.70
2023-02-23T17:54:33.449Z,10.70
2023-02-23T17:57:06.255Z,10.70
2023-02-23T17:59:36.026Z,10.60
2023-02-23T18:02:06.679Z,10.60
2023-02-23T18:04:36.683Z,10.50
2023-02-23T18:07:06.467Z,10.50
2023-02-23T18:09:36.264Z,10.40
2023-02-23T18:12:09.761Z,10.40
2023-02-23T18:14:40.383Z,10.40
2023-02-23T18:17:10.132Z,10.40
2023-02-23T18:19:39.961Z,10.40
2023-02-23T18:22:09.908Z,10.40
2023-02-23T18:24:41.467Z,10.30
2023-02-23T18:27:14.604Z,10.30
2023-02-23T18:29:44.356Z,10.30
2023-02-23T18:32:14.686Z,10.30
2023-02-23T18:34:44.560Z,10.30
2023-02-23T18:37:21.470Z,10.30
2023-02-23T18:39:56.877Z,10.30
2023-02-23T18:42:31.598Z,10.20
2023-02-23T18:45:01.352Z,10.20
2023-02-23T18:47:31.096Z,10.20
2023-02-23T18:50:01.642Z,10.10
2023-02-23T18:52:31.527Z,10.10
2023-02-23T18:55:01.362Z,10.10
2023-02-23T18:57:35.448Z,10.10
2023-02-23T19:00:10.478Z,10.10
2023-02-23T19:02:41.442Z,10.10
2023-02-23T19:05:12.931Z,10.10
2023-02-23T19:07:43.623Z,10.10
2023-02-23T19:10:16.343Z,10.10
2023-02-23T19:12:48.758Z,10.10
2023-02-23T19:15:18.580Z,10.10
2023-02-23T19:17:48.293Z,10.10
2023-02-23T19:20:18.357Z,10.10
2023-02-23T19:22:49.755Z,10.10
2023-02-23T19:25:19.635Z,10.00
2023-02-23T19:27:52.326Z,10.00
2023-02-23T19:30:22.253Z,10.00
2023-02-23T19:32:52.169Z,10.00
2023-02-23T19:35:22.505Z,10.00
2023-02-23T19:37:54.467Z,10.00
2023-02-23T19:40:28.580Z,9.90
2023-02-23T19:43:00.975Z,9.90
2023-02-23T19:45:30.812Z,9.90
2023-02-23T19:48:00.654Z,9.90
2023-02-23T19:50:31.615Z,9.90
2023-02-23T19:53:01.430Z,9.90
2023-02-23T19:55:31.143Z,9.90
2023-02-23T19:58:03.445Z,10.00
2023-02-23T20:00:33.263Z,10.00
2023-02-23T20:03:06.395Z,10.00
2023-02-23T20:05:43.209Z,10.00
2023-02-23T20:08:13.031Z,9.90
2023-02-23T20:10:42.947Z,10.00
2023-02-23T20:13:15.706Z,10.00
2023-02-23T20:15:46.269Z,9.90
2023-02-23T20:18:16.109Z,9.90
2023-02-23T20:20:46.608Z,9.90
2023-02-23T20:23:16.432Z,9.90
2023-02-23T20:25:46.308Z,9.90
2023-02-23T20:28:18.719Z,9.90
2023-02-23T20:30:49.632Z,9.90
2023-02-23T20:33:19.455Z,9.90
2023-02-23T20:35:49.247Z,9.90
2023-02-23T20:38:19.016Z,9.90
2023-02-23T20:40:49.066Z,9.90
2023-02-23T20:43:23.425Z,9.90
2023-02-23T20:45:53.235Z,9.80
2023-02-23T20:48:23.067Z,9.90
2023-02-23T20:50:56.235Z,9.80
2023-02-23T20:53:29.219Z,9.80
2023-02-23T20:55:59.032Z,9.80
2023-02-23T20:58:31.473Z,9.80
2023-02-23T21:01:03.449Z,9.80
2023-02-23T21:03:33.391Z,9.80
2023-02-23T21:06:03.298Z,9.80
2023-02-23T21:08:33.466Z,9.80
2023-02-23T21:11:07.785Z,9.80
2023-02-23T21:13:40.225Z,9.80
2023-02-23T21:16:10.848Z,9.80
2023-02-23T21:18:40.674Z,9.80
2023-02-23T21:21:13.876Z,9.80
2023-02-23T21:23:49.251Z,9.80
2023-02-23T21:26:21.673Z,9.80
2023-02-23T21:28:54.256Z,9.80
2023-02-23T21:31:24.424Z,9.80
2023-02-23T21:33:54.311Z,9.80
2023-02-23T21:36:24.038Z,9.80
2023-02-23T21:38:53.935Z,9.80
2023-02-23T21:41:23.881Z,9.80
2023-02-23T21:43:56.514Z,9.80
2023-02-23T21:46:27.788Z,9.70
2023-02-23T21:48:57.645Z,9.70
2023-02-23T21:51:28.038Z,9.70
2023-02-23T21:54:00.131Z,9.70
2023-02-23T21:56:30.747Z,9.70
2023-02-23T21:59:03.499Z,9.60
2023-02-23T22:01:36.429Z,9.60
2023-02-23T22:04:08.477Z,9.70
2023-02-23T22:06:41.640Z,9.70
2023-02-23T22:09:15.884Z,9.60
2023-02-23T22:11:47.780Z,9.60
2023-02-23T22:14:22.444Z,9.60
2023-02-23T22:16:52.572Z,9.60
2023-02-23T22:19:22.585Z,9.70
2023-02-23T22:21:53.357Z,9.70
2023-02-23T22:24:23.379Z,9.70
2023-02-23T22:26:54.510Z,9.70
2023-02-23T22:29:28.415Z,9.70
2023-02-23T22:31:58.448Z,9.70
2023-02-23T22:34:28.479Z,9.70
2023-02-23T22:36:58.372Z,9.70
2023-02-23T22:39:33.434Z,9.70
2023-02-23T22:42:09.385Z,9.60
2023-02-23T22:44:43.028Z,9.60
2023-02-23T22:47:13.675Z,9.60
2023-02-23T22:49:43.548Z,9.60
2023-02-23T22:52:13.404Z,9.70
2023-02-23T22:54:45.480Z,9.70
2023-02-23T22:57:15.424Z,9.60
2023-02-23T22:59:59.994Z,9.70
2023-02-23T23:02:32.433Z,9.60
2023-02-23T23:05:02.579Z,9.60
2023-02-23T23:07:33.684Z,9.60
2023-02-23T23:10:05.822Z,9.60
2023-02-23T23:12:36.578Z,9.50
2023-02-23T23:15:14.966Z,9.50
2023-02-23T23:17:48.893Z,9.50
2023-02-23T23:20:23.302Z,9.50
2023-02-23T23:22:53.117Z,9.40
2023-02-23T23:25:25.671Z,9.40
2023-02-23T23:27:55.804Z,9.40
2023-02-23T23:30:29.212Z,9.40
2023-02-23T23:33:01.235Z,9.40
2023-02-23T23:35:34.410Z,9.40
2023-02-23T23:38:06.245Z,9.30
2023-02-23T23:40:37.389Z,9.30
2023-02-23T23:43:07.898Z,9.30
2023-02-23T23:45:43.957Z,9.30
2023-02-23T23:48:14.502Z,9.30
2023-02-23T23:50:45.060Z,9.20
2023-02-23T23:53:14.855Z,9.20
2023-02-23T23:55:45.408Z,9.20
2023-02-23T23:58:18.518Z,9.20
